sensor_id;sensor_type;location;lat;lon;timestamp;P1;durP1;ratioP1;P2;durP2;ratioP2
2748;SDS011;1382;52.142;11.618;2023-03-01T00:02:18;13.60;;;8.07;;
2748;SDS011;1382;52.142;11.618;2023-03-01T00:04:45;17.53;;;8.93;;
2748;SDS011;1382;52.142;11.618;2023-03-01T00:07:13;14.77;;;8.60;;
2748;SDS011;1382;52.142;11.618;2023-03-01T00:09:40;15.60;;;8.70;;
2748;SDS011;1382;52.142;11.618;2023-03-01T00:12:06;15.37;;;9.00;;
2748;SDS011;1382;52.142;11.618;2023-03-01T00:14:33;15.77;;;7.60;;
2748;SDS011;1382;52.142;11.618;2023-03-01T00:17:01;8.40;;;5.43;;
2748;SDS011;1382;52.142;11.618;2023-03-01T00:19:30;14.60;;;8.10;;
2748;SDS011;1382;52.142;11.618;2023-03-01T00:21:58;9.50;;;7.03;;
2748;SDS011;1382;52.142;11.618;2023-03-01T00:24:25;17.70;;;9.37;;
2748;SDS011;1382;52.142;11.618;2023-03-01T00:26:52;11.40;;;7.50;;
2748;SDS011;1382;52.142;11.618;2023-03-01T00:29:19;12.03;;;8.17;;
2748;SDS011;1382;52.142;11.618;2023-03-01T00:31:47;11.52;;;6.95;;
2748;SDS011;1382;52.142;11.618;2023-03-01T00:34:17;18.88;;;7.97;;
2748;SDS011;1382;52.142;11.618;2023-03-01T00:36:45;14.43;;;8.40;;
2748;SDS011;1382;52.142;11.618;2023-03-01T00:39:12;10.80;;;6.87;;
2748;SDS011;1382;52.142;11.618;2023-03-01T00:41:41;13.05;;;6.93;;
2748;SDS011;1382;52.142;11.618;2023-03-01T00:44:08;13.43;;;7.47;;
2748;SDS011;1382;52.142;11.618;2023-03-01T00:46:36;11.67;;;7.80;;
2748;SDS011;1382;52.142;11.618;2023-03-01T00:49:03;12.63;;;7.82;;
2748;SDS011;1382;52.142;11.618;2023-03-01T00:51:30;11.38;;;7.65;;
2748;SDS011;1382;52.142;11.618;2023-03-01T00:53:59;14.30;;;9.02;;
2748;SDS011;1382;52.142;11.618;2023-03-01T00:56:27;16.42;;;8.10;;
2748;SDS011;1382;52.142;11.618;2023-03-01T00:58:54;16.27;;;7.90;;
2748;SDS011;1382;52.142;11.618;2023-03-01T01:01:22;14.73;;;7.63;;
2748;SDS011;1382;52.142;11.618;2023-03-01T01:03:51;10.93;;;6.53;;
2748;SDS011;1382;52.142;11.618;2023-03-01T01:06:22;12.30;;;8.55;;
2748;SDS011;1382;52.142;11.618;2023-03-01T01:08:51;14.63;;;7.63;;
2748;SDS011;1382;52.142;11.618;2023-03-01T01:11:21;15.35;;;9.77;;
2748;SDS011;1382;52.142;11.618;2023-03-01T01:13:49;16.98;;;9.10;;
2748;SDS011;1382;52.142;11.618;2023-03-01T01:16:17;12.68;;;7.75;;
2748;SDS011;1382;52.142;11.618;2023-03-01T01:18:44;12.00;;;7.72;;
2748;SDS011;1382;52.142;11.618;2023-03-01T01:21:13;11.30;;;7.10;;
2748;SDS011;1382;52.142;11.618;2023-03-01T01:23:41;12.05;;;8.30;;
2748;SDS011;1382;52.142;11.618;2023-03-01T01:26:09;11.98;;;7.90;;
2748;SDS011;1382;52.142;11.618;2023-03-01T01:28:39;12.52;;;7.30;;
2748;SDS011;1382;52.142;11.618;2023-03-01T01:31:06;12.27;;;6.80;;
2748;SDS011;1382;52.142;11.618;2023-03-01T01:33:34;10.48;;;7.03;;
2748;SDS011;1382;52.142;11.618;2023-03-01T01:36:01;12.88;;;7.57;;
2748;SDS011;1382;52.142;11.618;2023-03-01T01:38:28;14.93;;;7.55;;
2748;SDS011;1382;52.142;11.618;2023-03-01T01:40:55;11.18;;;7.45;;
2748;SDS011;1382;52.142;11.618;2023-03-01T01:43:23;9.82;;;6.05;;
2748;SDS011;1382;52.142;11.618;2023-03-01T01:45:53;11.70;;;6.93;;
2748;SDS011;1382;52.142;11.618;2023-03-01T01:48:24;12.25;;;6.68;;
2748;SDS011;1382;52.142;11.618;2023-03-01T01:50:59;9.60;;;6.75;;
2748;SDS011;1382;52.142;11.618;2023-03-01T01:53:27;11.07;;;6.03;;
2748;SDS011;1382;52.142;11.618;2023-03-01T01:55:57;11.13;;;6.53;;
2748;SDS011;1382;52.142;11.618;2023-03-01T01:58:27;12.77;;;7.22;;
2748;SDS011;1382;52.142;11.618;2023-03-01T02:00:57;8.90;;;5.88;;
2748;SDS011;1382;52.142;11.618;2023-03-01T02:03:25;12.55;;;6.00;;
2748;SDS011;1382;52.142;11.618;2023-03-01T02:05:56;8.75;;;6.35;;
2748;SDS011;1382;52.142;11.618;2023-03-01T02:08:28;9.90;;;6.00;;
2748;SDS011;1382;52.142;11.618;2023-03-01T02:10:57;9.57;;;6.57;;
2748;SDS011;1382;52.142;11.618;2023-03-01T02:13:26;6.50;;;5.22;;
2748;SDS011;1382;52.142;11.618;2023-03-01T02:15:56;10.65;;;6.32;;
2748;SDS011;1382;52.142;11.618;2023-03-01T02:18:24;10.25;;;5.82;;
2748;SDS011;1382;52.142;11.618;2023-03-01T02:20:59;8.43;;;5.82;;
2748;SDS011;1382;52.142;11.618;2023-03-01T02:23:33;9.07;;;6.82;;
2748;SDS011;1382;52.142;11.618;2023-03-01T02:26:03;11.55;;;5.80;;
2748;SDS011;1382;52.142;11.618;2023-03-01T02:28:35;8.20;;;6.20;;
2748;SDS011;1382;52.142;11.618;2023-03-01T02:31:03;13.70;;;6.53;;
2748;SDS011;1382;52.142;11.618;2023-03-01T02:33:33;9.90;;;6.03;;
2748;SDS011;1382;52.142;11.618;2023-03-01T02:36:03;6.30;;;5.07;;
2748;SDS011;1382;52.142;11.618;2023-03-01T02:38:33;7.30;;;5.40;;
2748;SDS011;1382;52.142;11.618;2023-03-01T02:41:00;9.82;;;6.72;;
2748;SDS011;1382;52.142;11.618;2023-03-01T02:43:30;8.80;;;6.20;;
2748;SDS011;1382;52.142;11.618;2023-03-01T02:46:04;9.63;;;5.63;;
2748;SDS011;1382;52.142;11.618;2023-03-01T02:48:39;9.73;;;5.30;;
2748;SDS011;1382;52.142;11.618;2023-03-01T02:51:10;11.90;;;5.60;;
2748;SDS011;1382;52.142;11.618;2023-03-01T02:53:51;8.60;;;5.47;;
2748;SDS011;1382;52.142;11.618;2023-03-01T02:56:25;12.60;;;6.65;;
2748;SDS011;1382;52.142;11.618;2023-03-01T02:58:52;9.05;;;5.80;;
2748;SDS011;1382;52.142;11.618;2023-03-01T03:01:21;8.05;;;5.47;;
2748;SDS011;1382;52.142;11.618;2023-03-01T03:03:48;11.75;;;6.18;;
2748;SDS011;1382;52.142;11.618;2023-03-01T03:06:15;7.95;;;5.45;;
2748;SDS011;1382;52.142;11.618;2023-03-01T03:08:42;8.53;;;5.23;;
2748;SDS011;1382;52.142;11.618;2023-03-01T03:11:09;9.55;;;5.32;;
2748;SDS011;1382;52.142;11.618;2023-03-01T03:16:59;7.28;;;4.97;;
2748;SDS011;1382;52.142;11.618;2023-03-01T03:19:25;11.05;;;5.38;;
2748;SDS011;1382;52.142;11.618;2023-03-01T03:21:52;10.02;;;5.13;;
2748;SDS011;1382;52.142;11.618;2023-03-01T03:24:19;11.27;;;6.25;;
2748;SDS011;1382;52.142;11.618;2023-03-01T03:26:46;9.50;;;5.30;;
2748;SDS011;1382;52.142;11.618;2023-03-01T03:29:13;5.65;;;4.53;;
2748;SDS011;1382;52.142;11.618;2023-03-01T03:31:41;16.20;;;5.57;;
2748;SDS011;1382;52.142;11.618;2023-03-01T03:34:10;7.22;;;4.20;;
2748;SDS011;1382;52.142;11.618;2023-03-01T03:36:37;7.65;;;4.88;;
2748;SDS011;1382;52.142;11.618;2023-03-01T03:39:04;6.95;;;4.80;;
2748;SDS011;1382;52.142;11.618;2023-03-01T03:41:34;9.70;;;4.97;;
2748;SDS011;1382;52.142;11.618;2023-03-01T03:44:01;13.52;;;4.97;;
2748;SDS011;1382;52.142;11.618;2023-03-01T03:46:28;7.25;;;3.97;;
2748;SDS011;1382;52.142;11.618;2023-03-01T03:48:55;7.78;;;5.72;;
2748;SDS011;1382;52.142;11.618;2023-03-01T03:51:23;8.00;;;5.20;;
2748;SDS011;1382;52.142;11.618;2023-03-01T03:53:50;7.60;;;4.90;;
2748;SDS011;1382;52.142;11.618;2023-03-01T03:56:17;9.15;;;5.38;;
2748;SDS011;1382;52.142;11.618;2023-03-01T03:58:44;12.90;;;5.88;;
2748;SDS011;1382;52.142;11.618;2023-03-01T04:01:12;8.07;;;4.93;;
2748;SDS011;1382;52.142;11.618;2023-03-01T04:03:38;8.63;;;5.28;;
2748;SDS011;1382;52.142;11.618;2023-03-01T04:06:05;7.53;;;5.15;;
2748;SDS011;1382;52.142;11.618;2023-03-01T04:08:34;11.80;;;5.25;;
2748;SDS011;1382;52.142;11.618;2023-03-01T04:11:02;7.50;;;5.05;;
2748;SDS011;1382;52.142;11.618;2023-03-01T04:13:30;8.70;;;4.13;;
2748;SDS011;1382;52.142;11.618;2023-03-01T04:15:58;12.18;;;5.40;;
2748;SDS011;1382;52.142;11.618;2023-03-01T04:18:25;11.65;;;5.10;;
2748;SDS011;1382;52.142;11.618;2023-03-01T04:20:52;8.75;;;5.10;;
2748;SDS011;1382;52.142;11.618;2023-03-01T04:23:20;7.32;;;4.40;;
2748;SDS011;1382;52.142;11.618;2023-03-01T04:25:48;11.73;;;5.00;;
2748;SDS011;1382;52.142;11.618;2023-03-01T04:28:16;8.02;;;5.43;;
2748;SDS011;1382;52.142;11.618;2023-03-01T04:30:43;9.00;;;5.20;;
2748;SDS011;1382;52.142;11.618;2023-03-01T04:33:10;6.65;;;4.80;;
2748;SDS011;1382;52.142;11.618;2023-03-01T04:35:37;7.82;;;5.35;;
2748;SDS011;1382;52.142;11.618;2023-03-01T04:38:04;6.90;;;3.78;;
2748;SDS011;1382;52.142;11.618;2023-03-01T04:40:32;7.15;;;4.70;;
2748;SDS011;1382;52.142;11.618;2023-03-01T04:43:01;9.45;;;5.00;;
2748;SDS011;1382;52.142;11.618;2023-03-01T04:45:28;9.15;;;4.95;;
2748;SDS011;1382;52.142;11.618;2023-03-01T04:47:56;8.15;;;5.22;;
2748;SDS011;1382;52.142;11.618;2023-03-01T04:50:22;14.90;;;5.20;;
2748;SDS011;1382;52.142;11.618;2023-03-01T04:52:49;7.90;;;5.40;;
2748;SDS011;1382;52.142;11.618;2023-03-01T04:55:16;7.93;;;4.75;;
2748;SDS011;1382;52.142;11.618;2023-03-01T04:57:43;9.75;;;5.45;;
2748;SDS011;1382;52.142;11.618;2023-03-01T05:00:13;8.07;;;5.03;;
2748;SDS011;1382;52.142;11.618;2023-03-01T05:02:40;7.13;;;5.40;;
2748;SDS011;1382;52.142;11.618;2023-03-01T05:05:07;15.27;;;5.28;;
2748;SDS011;1382;52.142;11.618;2023-03-01T05:07:34;7.72;;;4.80;;
2748;SDS011;1382;52.142;11.618;2023-03-01T05:10:01;9.98;;;5.53;;
2748;SDS011;1382;52.142;11.618;2023-03-01T05:12:28;16.33;;;5.32;;
2748;SDS011;1382;52.142;11.618;2023-03-01T05:14:55;12.15;;;5.45;;
2748;SDS011;1382;52.142;11.618;2023-03-01T05:17:23;6.95;;;4.50;;
2748;SDS011;1382;52.142;11.618;2023-03-01T05:19:50;11.50;;;5.05;;
2748;SDS011;1382;52.142;11.618;2023-03-01T05:22:17;10.38;;;4.60;;
2748;SDS011;1382;52.142;11.618;2023-03-01T05:24:44;6.07;;;4.50;;
2748;SDS011;1382;52.142;11.618;2023-03-01T05:27:11;6.57;;;3.58;;
2748;SDS011;1382;52.142;11.618;2023-03-01T05:29:40;5.72;;;4.20;;
2748;SDS011;1382;52.142;11.618;2023-03-01T05:32:09;8.05;;;4.50;;
2748;SDS011;1382;52.142;11.618;2023-03-01T05:34:42;5.72;;;4.05;;
2748;SDS011;1382;52.142;11.618;2023-03-01T05:37:09;6.57;;;4.35;;
2748;SDS011;1382;52.142;11.618;2023-03-01T05:39:36;8.13;;;3.88;;
2748;SDS011;1382;52.142;11.618;2023-03-01T05:42:03;7.97;;;3.92;;
2748;SDS011;1382;52.142;11.618;2023-03-01T05:44:30;8.55;;;4.53;;
2748;SDS011;1382;52.142;11.618;2023-03-01T05:46:58;7.70;;;5.05;;
2748;SDS011;1382;52.142;11.618;2023-03-01T05:49:25;14.07;;;5.47;;
2748;SDS011;1382;52.142;11.618;2023-03-01T05:51:53;7.70;;;3.45;;
2748;SDS011;1382;52.142;11.618;2023-03-01T05:54:20;5.20;;;4.15;;
2748;SDS011;1382;52.142;11.618;2023-03-01T05:56:49;9.05;;;4.15;;
2748;SDS011;1382;52.142;11.618;2023-03-01T05:59:16;5.50;;;3.63;;
2748;SDS011;1382;52.142;11.618;2023-03-01T06:01:43;6.40;;;4.97;;
2748;SDS011;1382;52.142;11.618;2023-03-01T06:04:12;9.18;;;4.35;;
2748;SDS011;1382;52.142;11.618;2023-03-01T06:06:39;14.43;;;4.43;;
2748;SDS011;1382;52.142;11.618;2023-03-01T06:09:07;6.70;;;4.03;;
2748;SDS011;1382;52.142;11.618;2023-03-01T06:11:34;7.80;;;5.15;;
2748;SDS011;1382;52.142;11.618;2023-03-01T06:14:02;6.13;;;4.30;;
2748;SDS011;1382;52.142;11.618;2023-03-01T06:16:31;9.27;;;4.45;;
2748;SDS011;1382;52.142;11.618;2023-03-01T06:18:58;7.47;;;4.80;;
2748;SDS011;1382;52.142;11.618;2023-03-01T06:21:25;15.00;;;5.70;;
2748;SDS011;1382;52.142;11.618;2023-03-01T06:23:52;16.70;;;5.43;;
2748;SDS011;1382;52.142;11.618;2023-03-01T06:26:20;8.48;;;5.05;;
2748;SDS011;1382;52.142;11.618;2023-03-01T06:28:47;12.45;;;5.05;;
2748;SDS011;1382;52.142;11.618;2023-03-01T06:31:14;11.13;;;4.00;;
2748;SDS011;1382;52.142;11.618;2023-03-01T06:33:41;9.52;;;4.43;;
2748;SDS011;1382;52.142;11.618;2023-03-01T06:36:08;16.17;;;5.35;;
2748;SDS011;1382;52.142;11.618;2023-03-01T06:38:35;7.63;;;4.75;;
2748;SDS011;1382;52.142;11.618;2023-03-01T06:41:02;8.45;;;4.63;;
2748;SDS011;1382;52.142;11.618;2023-03-01T06:43:31;10.32;;;5.32;;
2748;SDS011;1382;52.142;11.618;2023-03-01T06:45:57;8.77;;;4.78;;
2748;SDS011;1382;52.142;11.618;2023-03-01T06:48:24;8.38;;;4.90;;
2748;SDS011;1382;52.142;11.618;2023-03-01T06:50:51;10.50;;;6.00;;
2748;SDS011;1382;52.142;11.618;2023-03-01T06:53:18;15.68;;;5.55;;
2748;SDS011;1382;52.142;11.618;2023-03-01T06:55:45;14.77;;;5.40;;
2748;SDS011;1382;52.142;11.618;2023-03-01T06:58:12;13.30;;;5.35;;
2748;SDS011;1382;52.142;11.618;2023-03-01T07:00:40;9.85;;;6.55;;
2748;SDS011;1382;52.142;11.618;2023-03-01T07:03:07;13.57;;;6.65;;
2748;SDS011;1382;52.142;11.618;2023-03-01T07:05:35;16.92;;;6.28;;
2748;SDS011;1382;52.142;11.618;2023-03-01T07:08:01;14.77;;;5.18;;
2748;SDS011;1382;52.142;11.618;2023-03-01T07:10:29;22.38;;;6.13;;
2748;SDS011;1382;52.142;11.618;2023-03-01T07:15:25;11.27;;;6.10;;
2748;SDS011;1382;52.142;11.618;2023-03-01T07:17:54;8.90;;;6.05;;
2748;SDS011;1382;52.142;11.618;2023-03-01T07:20:22;8.70;;;6.63;;
2748;SDS011;1382;52.142;11.618;2023-03-01T07:22:49;10.18;;;6.00;;
2748;SDS011;1382;52.142;11.618;2023-03-01T07:25:16;12.57;;;5.88;;
2748;SDS011;1382;52.142;11.618;2023-03-01T07:27:42;8.18;;;6.55;;
2748;SDS011;1382;52.142;11.618;2023-03-01T07:30:10;13.57;;;6.40;;
2748;SDS011;1382;52.142;11.618;2023-03-01T07:32:37;13.60;;;7.45;;
2748;SDS011;1382;52.142;11.618;2023-03-01T07:35:06;16.83;;;7.40;;
2748;SDS011;1382;52.142;11.618;2023-03-01T07:37:33;13.90;;;7.25;;
2748;SDS011;1382;52.142;11.618;2023-03-01T07:39:59;11.85;;;8.25;;
2748;SDS011;1382;52.142;11.618;2023-03-01T07:42:26;10.02;;;7.65;;
2748;SDS011;1382;52.142;11.618;2023-03-01T07:44:53;17.35;;;8.88;;
2748;SDS011;1382;52.142;11.618;2023-03-01T07:47:20;13.32;;;7.80;;
2748;SDS011;1382;52.142;11.618;2023-03-01T07:49:46;10.85;;;6.07;;
2748;SDS011;1382;52.142;11.618;2023-03-01T07:52:15;11.98;;;7.20;;
2748;SDS011;1382;52.142;11.618;2023-03-01T07:54:42;8.35;;;5.78;;
2748;SDS011;1382;52.142;11.618;2023-03-01T07:57:09;14.30;;;6.35;;
2748;SDS011;1382;52.142;11.618;2023-03-01T07:59:36;19.17;;;6.90;;
2748;SDS011;1382;52.142;11.618;2023-03-01T08:02:03;17.65;;;7.78;;
2748;SDS011;1382;52.142;11.618;2023-03-01T08:04:30;13.13;;;7.80;;
2748;SDS011;1382;52.142;11.618;2023-03-01T08:06:57;15.15;;;7.03;;
2748;SDS011;1382;52.142;11.618;2023-03-01T08:09:26;13.68;;;7.60;;
2748;SDS011;1382;52.142;11.618;2023-03-01T08:11:53;16.23;;;8.40;;
2748;SDS011;1382;52.142;11.618;2023-03-01T08:14:19;14.15;;;8.05;;
2748;SDS011;1382;52.142;11.618;2023-03-01T08:16:48;12.80;;;8.60;;
2748;SDS011;1382;52.142;11.618;2023-03-01T08:19:15;15.17;;;7.40;;
2748;SDS011;1382;52.142;11.618;2023-03-01T08:21:42;15.50;;;8.43;;
2748;SDS011;1382;52.142;11.618;2023-03-01T08:24:09;21.25;;;8.80;;
2748;SDS011;1382;52.142;11.618;2023-03-01T08:26:37;13.47;;;9.80;;
2748;SDS011;1382;52.142;11.618;2023-03-01T08:29:04;25.00;;;8.63;;
2748;SDS011;1382;52.142;11.618;2023-03-01T08:31:33;22.20;;;8.60;;
2748;SDS011;1382;52.142;11.618;2023-03-01T08:34:01;13.43;;;7.83;;
2748;SDS011;1382;52.142;11.618;2023-03-01T08:36:30;21.10;;;9.40;;
2748;SDS011;1382;52.142;11.618;2023-03-01T08:38:58;27.60;;;8.57;;
2748;SDS011;1382;52.142;11.618;2023-03-01T08:41:25;8.10;;;6.60;;
2748;SDS011;1382;52.142;11.618;2023-03-01T08:43:54;14.20;;;7.80;;
2748;SDS011;1382;52.142;11.618;2023-03-01T08:46:21;14.40;;;8.10;;
2748;SDS011;1382;52.142;11.618;2023-03-01T08:48:48;21.73;;;8.90;;
2748;SDS011;1382;52.142;11.618;2023-03-01T08:51:15;16.20;;;8.70;;
2748;SDS011;1382;52.142;11.618;2023-03-01T08:53:46;13.13;;;7.20;;
2748;SDS011;1382;52.142;11.618;2023-03-01T08:56:14;9.90;;;6.53;;
2748;SDS011;1382;52.142;11.618;2023-03-01T08:58:43;14.17;;;6.50;;
2748;SDS011;1382;52.142;11.618;2023-03-01T09:01:14;15.63;;;6.93;;
2748;SDS011;1382;52.142;11.618;2023-03-01T09:03:41;11.83;;;6.70;;
2748;SDS011;1382;52.142;11.618;2023-03-01T09:06:08;13.30;;;7.10;;
2748;SDS011;1382;52.142;11.618;2023-03-01T09:08:36;12.20;;;8.47;;
2748;SDS011;1382;52.142;11.618;2023-03-01T09:11:04;8.20;;;6.57;;
2748;SDS011;1382;52.142;11.618;2023-03-01T09:13:32;17.20;;;8.90;;
2748;SDS011;1382;52.142;11.618;2023-03-01T09:16:00;12.80;;;6.57;;
2748;SDS011;1382;52.142;11.618;2023-03-01T09:18:30;14.03;;;6.90;;
2748;SDS011;1382;52.142;11.618;2023-03-01T09:21:00;13.47;;;6.80;;
2748;SDS011;1382;52.142;11.618;2023-03-01T09:23:27;12.13;;;7.00;;
2748;SDS011;1382;52.142;11.618;2023-03-01T09:25:54;14.07;;;6.53;;
2748;SDS011;1382;52.142;11.618;2023-03-01T09:28:21;12.80;;;8.57;;
2748;SDS011;1382;52.142;11.618;2023-03-01T09:30:57;11.53;;;6.13;;
2748;SDS011;1382;52.142;11.618;2023-03-01T09:33:24;14.73;;;7.03;;
2748;SDS011;1382;52.142;11.618;2023-03-01T09:35:56;12.13;;;7.83;;
2748;SDS011;1382;52.142;11.618;2023-03-01T09:38:23;13.80;;;8.60;;
2748;SDS011;1382;52.142;11.618;2023-03-01T09:40:52;19.50;;;7.20;;
2748;SDS011;1382;52.142;11.618;2023-03-01T09:43:21;13.17;;;6.37;;
2748;SDS011;1382;52.142;11.618;2023-03-01T09:45:52;8.87;;;5.10;;
2748;SDS011;1382;52.142;11.618;2023-03-01T09:48:24;6.47;;;4.23;;
2748;SDS011;1382;52.142;11.618;2023-03-01T09:50:54;6.10;;;5.17;;
2748;SDS011;1382;52.142;11.618;2023-03-01T09:53:25;9.20;;;5.23;;
2748;SDS011;1382;52.142;11.618;2023-03-01T09:55:59;8.63;;;5.63;;
2748;SDS011;1382;52.142;11.618;2023-03-01T09:58:29;10.77;;;6.93;;
2748;SDS011;1382;52.142;11.618;2023-03-01T10:01:10;6.93;;;5.40;;
2748;SDS011;1382;52.142;11.618;2023-03-01T10:04:00;12.00;;;5.57;;
2748;SDS011;1382;52.142;11.618;2023-03-01T10:06:37;12.23;;;6.70;;
2748;SDS011;1382;52.142;11.618;2023-03-01T10:09:07;21.77;;;8.17;;
2748;SDS011;1382;52.142;11.618;2023-03-01T10:11:41;9.63;;;5.70;;
2748;SDS011;1382;52.142;11.618;2023-03-01T10:14:14;10.17;;;5.70;;
2748;SDS011;1382;52.142;11.618;2023-03-01T10:16:50;11.63;;;6.50;;
2748;SDS011;1382;52.142;11.618;2023-03-01T10:19:21;13.10;;;5.90;;
2748;SDS011;1382;52.142;11.618;2023-03-01T10:21:51;8.67;;;6.23;;
2748;SDS011;1382;52.142;11.618;2023-03-01T10:24:20;7.53;;;4.23;;
2748;SDS011;1382;52.142;11.618;2023-03-01T10:26:48;6.10;;;3.97;;
2748;SDS011;1382;52.142;11.618;2023-03-01T10:29:22;9.37;;;5.80;;
2748;SDS011;1382;52.142;11.618;2023-03-01T10:31:52;12.13;;;7.20;;
2748;SDS011;1382;52.142;11.618;2023-03-01T10:34:20;8.33;;;5.70;;
2748;SDS011;1382;52.142;11.618;2023-03-01T10:36:48;11.40;;;5.80;;
2748;SDS011;1382;52.142;11.618;2023-03-01T10:39:18;18.77;;;4.87;;
2748;SDS011;1382;52.142;11.618;2023-03-01T10:41:55;8.47;;;4.10;;
2748;SDS011;1382;52.142;11.618;2023-03-01T10:44:35;10.53;;;5.73;;
2748;SDS011;1382;52.142;11.618;2023-03-01T10:47:12;6.70;;;5.13;;
2748;SDS011;1382;52.142;11.618;2023-03-01T10:49:51;8.20;;;4.67;;
2748;SDS011;1382;52.142;11.618;2023-03-01T10:52:20;5.70;;;4.17;;
2748;SDS011;1382;52.142;11.618;2023-03-01T10:54:52;7.63;;;5.57;;
2748;SDS011;1382;52.142;11.618;2023-03-01T10:57:27;9.30;;;5.37;;
2748;SDS011;1382;52.142;11.618;2023-03-01T11:00:00;6.80;;;4.23;;
2748;SDS011;1382;52.142;11.618;2023-03-01T11:02:41;10.00;;;5.50;;
2748;SDS011;1382;52.142;11.618;2023-03-01T11:05:15;5.37;;;3.90;;
2748;SDS011;1382;52.142;11.618;2023-03-01T11:07:49;6.23;;;5.13;;
2748;SDS011;1382;52.142;11.618;2023-03-01T11:10:19;8.83;;;5.50;;
2748;SDS011;1382;52.142;11.618;2023-03-01T11:12:48;8.83;;;4.97;;
2748;SDS011;1382;52.142;11.618;2023-03-01T11:15:21;7.03;;;5.07;;
2748;SDS011;1382;52.142;11.618;2023-03-01T11:17:50;6.03;;;4.50;;
2748;SDS011;1382;52.142;11.618;2023-03-01T11:20:25;8.30;;;4.50;;
2748;SDS011;1382;52.142;11.618;2023-03-01T11:22:56;6.87;;;4.33;;
2748;SDS011;1382;52.142;11.618;2023-03-01T11:25:26;6.57;;;4.30;;
2748;SDS011;1382;52.142;11.618;2023-03-01T11:28:00;8.73;;;5.30;;
2748;SDS011;1382;52.142;11.618;2023-03-01T11:30:30;5.33;;;4.37;;
2748;SDS011;1382;52.142;11.618;2023-03-01T11:33:05;6.40;;;4.90;;
2748;SDS011;1382;52.142;11.618;2023-03-01T11:35:41;6.20;;;5.57;;
2748;SDS011;1382;52.142;11.618;2023-03-01T11:38:15;9.53;;;5.47;;
2748;SDS011;1382;52.142;11.618;2023-03-01T11:40:47;7.90;;;3.77;;
2748;SDS011;1382;52.142;11.618;2023-03-01T11:43:24;5.70;;;3.43;;
2748;SDS011;1382;52.142;11.618;2023-03-01T11:45:59;6.87;;;5.23;;
2748;SDS011;1382;52.142;11.618;2023-03-01T11:48:51;8.93;;;4.90;;
2748;SDS011;1382;52.142;11.618;2023-03-01T11:51:24;8.53;;;4.37;;
2748;SDS011;1382;52.142;11.618;2023-03-01T11:54:06;8.90;;;4.83;;
2748;SDS011;1382;52.142;11.618;2023-03-01T11:56:43;6.17;;;4.73;;
2748;SDS011;1382;52.142;11.618;2023-03-01T11:59:23;9.50;;;4.97;;
2748;SDS011;1382;52.142;11.618;2023-03-01T12:02:19;7.73;;;4.80;;
2748;SDS011;1382;52.142;11.618;2023-03-01T12:05:24;8.00;;;5.67;;
2748;SDS011;1382;52.142;11.618;2023-03-01T12:08:05;6.60;;;4.60;;
2748;SDS011;1382;52.142;11.618;2023-03-01T12:10:38;5.53;;;4.13;;
2748;SDS011;1382;52.142;11.618;2023-03-01T12:13:27;5.80;;;4.13;;
2748;SDS011;1382;52.142;11.618;2023-03-01T12:16:17;6.23;;;4.40;;
2748;SDS011;1382;52.142;11.618;2023-03-01T12:19:21;9.73;;;4.80;;
2748;SDS011;1382;52.142;11.618;2023-03-01T12:22:16;7.60;;;4.97;;
2748;SDS011;1382;52.142;11.618;2023-03-01T12:25:04;8.27;;;4.43;;
2748;SDS011;1382;52.142;11.618;2023-03-01T12:27:54;7.10;;;3.47;;
2748;SDS011;1382;52.142;11.618;2023-03-01T12:30:32;4.87;;;2.63;;
2748;SDS011;1382;52.142;11.618;2023-03-01T12:33:15;7.30;;;4.27;;
2748;SDS011;1382;52.142;11.618;2023-03-01T12:35:58;6.53;;;4.23;;
2748;SDS011;1382;52.142;11.618;2023-03-01T12:38:49;6.97;;;4.30;;
2748;SDS011;1382;52.142;11.618;2023-03-01T12:41:27;5.87;;;3.90;;
2748;SDS011;1382;52.142;11.618;2023-03-01T12:44:08;5.07;;;3.60;;
2748;SDS011;1382;52.142;11.618;2023-03-01T12:46:45;10.33;;;4.40;;
2748;SDS011;1382;52.142;11.618;2023-03-01T12:49:24;5.80;;;4.93;;
2748;SDS011;1382;52.142;11.618;2023-03-01T12:51:56;4.97;;;4.37;;
2748;SDS011;1382;52.142;11.618;2023-03-01T12:54:27;7.33;;;4.47;;
2748;SDS011;1382;52.142;11.618;2023-03-01T12:56:55;7.40;;;5.03;;
2748;SDS011;1382;52.142;11.618;2023-03-01T12:59:27;7.57;;;4.23;;
2748;SDS011;1382;52.142;11.618;2023-03-01T13:02:04;5.93;;;4.60;;
2748;SDS011;1382;52.142;11.618;2023-03-01T13:04:48;6.50;;;3.83;;
2748;SDS011;1382;52.142;11.618;2023-03-01T13:07:34;7.50;;;4.77;;
2748;SDS011;1382;52.142;11.618;2023-03-01T13:10:08;6.43;;;3.90;;
2748;SDS011;1382;52.142;11.618;2023-03-01T13:12:44;8.60;;;3.93;;
2748;SDS011;1382;52.142;11.618;2023-03-01T13:15:29;4.80;;;4.03;;
2748;SDS011;1382;52.142;11.618;2023-03-01T13:17:58;3.90;;;3.50;;
2748;SDS011;1382;52.142;11.618;2023-03-01T13:20:29;6.47;;;4.07;;
2748;SDS011;1382;52.142;11.618;2023-03-01T13:26:00;12.73;;;5.03;;
2748;SDS011;1382;52.142;11.618;2023-03-01T13:28:39;5.40;;;4.67;;
2748;SDS011;1382;52.142;11.618;2023-03-01T13:37:35;7.77;;;5.53;;
2748;SDS011;1382;52.142;11.618;2023-03-01T13:40:05;7.20;;;5.27;;
2748;SDS011;1382;52.142;11.618;2023-03-01T13:42:50;7.50;;;4.80;;
2748;SDS011;1382;52.142;11.618;2023-03-01T13:45:36;6.07;;;4.50;;
2748;SDS011;1382;52.142;11.618;2023-03-01T13:48:08;5.10;;;3.40;;
2748;SDS011;1382;52.142;11.618;2023-03-01T13:50:38;6.70;;;4.90;;
2748;SDS011;1382;52.142;11.618;2023-03-01T13:53:14;4.90;;;4.03;;
2748;SDS011;1382;52.142;11.618;2023-03-01T13:55:44;8.50;;;5.33;;
2748;SDS011;1382;52.142;11.618;2023-03-01T14:00:43;8.50;;;4.70;;
2748;SDS011;1382;52.142;11.618;2023-03-01T14:03:11;6.57;;;4.07;;
2748;SDS011;1382;52.142;11.618;2023-03-01T14:05:39;4.83;;;3.77;;
2748;SDS011;1382;52.142;11.618;2023-03-01T14:08:23;4.50;;;3.93;;
2748;SDS011;1382;52.142;11.618;2023-03-01T14:10:53;5.20;;;3.30;;
2748;SDS011;1382;52.142;11.618;2023-03-01T14:13:41;6.07;;;4.10;;
2748;SDS011;1382;52.142;11.618;2023-03-01T14:16:23;6.10;;;3.97;;
2748;SDS011;1382;52.142;11.618;2023-03-01T14:19:01;8.10;;;3.60;;
2748;SDS011;1382;52.142;11.618;2023-03-01T14:21:58;6.43;;;5.10;;
2748;SDS011;1382;52.142;11.618;2023-03-01T14:24:27;5.77;;;4.00;;
2748;SDS011;1382;52.142;11.618;2023-03-01T14:26:55;5.87;;;3.43;;
2748;SDS011;1382;52.142;11.618;2023-03-01T14:29:35;8.90;;;4.87;;
2748;SDS011;1382;52.142;11.618;2023-03-01T14:32:10;6.20;;;4.17;;
2748;SDS011;1382;52.142;11.618;2023-03-01T14:34:42;6.50;;;4.70;;
2748;SDS011;1382;52.142;11.618;2023-03-01T14:37:10;5.10;;;2.90;;
2748;SDS011;1382;52.142;11.618;2023-03-01T14:39:44;4.97;;;3.70;;
2748;SDS011;1382;52.142;11.618;2023-03-01T14:42:11;6.33;;;4.60;;
2748;SDS011;1382;52.142;11.618;2023-03-01T14:44:41;5.70;;;3.43;;
2748;SDS011;1382;52.142;11.618;2023-03-01T14:47:10;9.83;;;3.77;;
2748;SDS011;1382;52.142;11.618;2023-03-01T14:49:38;10.40;;;4.20;;
2748;SDS011;1382;52.142;11.618;2023-03-01T14:52:06;4.57;;;3.30;;
2748;SDS011;1382;52.142;11.618;2023-03-01T14:54:46;10.13;;;3.97;;
2748;SDS011;1382;52.142;11.618;2023-03-01T14:57:15;5.07;;;3.90;;
2748;SDS011;1382;52.142;11.618;2023-03-01T14:59:42;4.40;;;2.70;;
2748;SDS011;1382;52.142;11.618;2023-03-01T15:02:11;4.83;;;3.40;;
2748;SDS011;1382;52.142;11.618;2023-03-01T15:04:41;5.97;;;3.73;;
2748;SDS011;1382;52.142;11.618;2023-03-01T15:07:09;5.63;;;3.40;;
2748;SDS011;1382;52.142;11.618;2023-03-01T15:09:39;6.77;;;3.10;;
2748;SDS011;1382;52.142;11.618;2023-03-01T15:12:32;4.30;;;2.90;;
2748;SDS011;1382;52.142;11.618;2023-03-01T15:15:08;3.67;;;2.83;;
2748;SDS011;1382;52.142;11.618;2023-03-01T15:17:49;5.73;;;3.40;;
2748;SDS011;1382;52.142;11.618;2023-03-01T15:20:19;3.87;;;3.10;;
2748;SDS011;1382;52.142;11.618;2023-03-01T15:22:46;5.57;;;3.03;;
2748;SDS011;1382;52.142;11.618;2023-03-01T15:25:14;4.40;;;3.07;;
2748;SDS011;1382;52.142;11.618;2023-03-01T15:27:46;6.83;;;3.80;;
2748;SDS011;1382;52.142;11.618;2023-03-01T15:30:17;3.40;;;2.63;;
2748;SDS011;1382;52.142;11.618;2023-03-01T15:32:47;5.97;;;3.50;;
2748;SDS011;1382;52.142;11.618;2023-03-01T15:35:33;5.80;;;1.97;;